Azamara Journey — 9HOB8 — position and weather

sailwx.info

Track history (hours):
 
Tides and Currents Weather Stations Pressure Air Temp Water Temp Dewpoint Dewpoint Depression Visibility Wind Speed Wind Dir Waves Ship Positions

Azamara Journey

Last reported at 2018-Feb-14 19:45 UTC. Time now 2018-Feb-19 10:14 UTC.
Position S 45°49' E 170°38'.

Type: Ship. MMSI: 256204000.

Date/timePositionNaut miles runAvg speedWind from/ knotsBaromVisibWave heightAir tempDewpointWater temp
2018-Feb-14 19:45S 45°49' E 170°38'2 7.8
2018-Feb-14 19:30S 45°48' E 170°40'8 8.7
2018-Feb-14 18:36S 45°43' E 170°49'210.3
2018-Feb-14 18:27S 45°44' E 170°50'511.2
2018-Feb-14 17:58S 45°50' E 170°49'1412.0
2018-Feb-14 16:49S 46°03' E 170°43'412.6
2018-Feb-14 16:31S 46°06' E 170°41'612.9
2018-Feb-14 16:00S 46°12' E 170°36'815.5
2018-Feb-14 15:31S 46°18' E 170°29'815.5
2018-Feb-14 15:00S 46°24' E 170°23'815.5
2018-Feb-14 14:30S 46°31' E 170°17'815.4
2018-Feb-14 14:00S 46°37' E 170°09'714.8
2018-Feb-14 13:30S 46°39' E 169°59'714.7
2018-Feb-14 13:00S 46°41' E 169°49'714.5
2018-Feb-14 12:30S 46°42' E 169°38'714.7
2018-Feb-14 12:01S 46°43' E 169°28'714.6
2018-Feb-14 11:30S 46°44' E 169°17'1414.7
2018-Feb-14 10:35S 46°44' E 168°57'114.5
2018-Feb-14 10:31S 46°44' E 168°56'714.7
2018-Feb-14 10:01S 46°42' E 168°46'714.4
2018-Feb-14 09:30S 46°41' E 168°35'714.2
2018-Feb-14 09:00S 46°41' E 168°25'815.8
2018-Feb-14 08:31S 46°40' E 168°14'917.1
2018-Feb-14 08:00S 46°37' E 168°02'817.0
2018-Feb-14 07:31S 46°34' E 167°50'816.3
2018-Feb-14 07:01S 46°31' E 167°39'816.9
2018-Feb-14 06:30S 46°29' E 167°27'917.1
2018-Feb-14 06:01S 46°26' E 167°16'916.9
2018-Feb-14 05:30S 46°23' E 167°04'3816.8
2018-Feb-14 03:14S 46°01' E 166°19'  
2018-Feb-09 16:00S 41°54' E 148°36'   060 / 151012.810.8 19.017.420.0
2018-Feb-06 04:50S 38°05' E 149°19'914.8
2018-Feb-06 04:15S 38°11' E 149°11'415.5
2018-Feb-06 03:59S 38°13' E 149°06'715.4
2018-Feb-06 03:30S 38°19' E 149°00'10216.4
2018-Feb-05 21:16S 39°05' E 147°04'517.2
2018-Feb-05 20:59S 39°07' E 146°58'1317.3
2018-Feb-05 20:16S 39°13' E 146°44'617.4
2018-Feb-05 19:55S 39°16' E 146°37'1116.9
2018-Feb-05 19:16S 39°16' E 146°23'2216.7
2018-Feb-05 17:58S 39°07' E 145°57'7017.1
2018-Feb-05 13:52S 38°27' E 144°44'23 8.8
2018-Feb-05 11:16S 38°06' E 144°55'515.3
2018-Feb-05 10:57S 38°01' E 144°55'714.5
2018-Feb-05 10:30S 37°54' E 144°56'6 0.8
2018-Feb-05 02:00S 37°48' E 144°54'3 0.6 180 / 101019.810.8 21.019.422.0
2018-Feb-04 20:45S 37°51' E 144°56'  
Track history (hours):
 
Tides and Currents Weather Stations Pressure Air Temp Water Temp Dewpoint Dewpoint Depression Visibility Wind Speed Wind Dir Waves Ship Positions

Azamara Journey

Last reported at 2018-Feb-14 19:45 UTC. Time now 2018-Feb-19 10:14 UTC.
Position S 45°49' E 170°38'.

Type: Ship. MMSI: 256204000.

Date/timePositionNaut miles runAvg speedWind from/ knotsBaromVisibWave heightAir tempDewpointWater temp
2018-Feb-14 19:45S 45°49' E 170°38'2 7.8
2018-Feb-14 19:30S 45°48' E 170°40'8 8.7
2018-Feb-14 18:36S 45°43' E 170°49'210.3
2018-Feb-14 18:27S 45°44' E 170°50'511.2
2018-Feb-14 17:58S 45°50' E 170°49'1412.0
2018-Feb-14 16:49S 46°03' E 170°43'412.6
2018-Feb-14 16:31S 46°06' E 170°41'612.9
2018-Feb-14 16:00S 46°12' E 170°36'815.5
2018-Feb-14 15:31S 46°18' E 170°29'815.5
2018-Feb-14 15:00S 46°24' E 170°23'815.5
2018-Feb-14 14:30S 46°31' E 170°17'815.4
2018-Feb-14 14:00S 46°37' E 170°09'714.8
2018-Feb-14 13:30S 46°39' E 169°59'714.7
2018-Feb-14 13:00S 46°41' E 169°49'714.5
2018-Feb-14 12:30S 46°42' E 169°38'714.7
2018-Feb-14 12:01S 46°43' E 169°28'714.6
2018-Feb-14 11:30S 46°44' E 169°17'1414.7
2018-Feb-14 10:35S 46°44' E 168°57'114.5
2018-Feb-14 10:31S 46°44' E 168°56'714.7
2018-Feb-14 10:01S 46°42' E 168°46'714.4
2018-Feb-14 09:30S 46°41' E 168°35'714.2
2018-Feb-14 09:00S 46°41' E 168°25'815.8
2018-Feb-14 08:31S 46°40' E 168°14'917.1
2018-Feb-14 08:00S 46°37' E 168°02'817.0
2018-Feb-14 07:31S 46°34' E 167°50'816.3
2018-Feb-14 07:01S 46°31' E 167°39'816.9
2018-Feb-14 06:30S 46°29' E 167°27'917.1
2018-Feb-14 06:01S 46°26' E 167°16'916.9
2018-Feb-14 05:30S 46°23' E 167°04'3816.8
2018-Feb-14 03:14S 46°01' E 166°19'  
2018-Feb-09 16:00S 41°54' E 148°36'   060 / 151012.810.8 19.017.420.0
2018-Feb-06 04:50S 38°05' E 149°19'914.8
2018-Feb-06 04:15S 38°11' E 149°11'415.5
2018-Feb-06 03:59S 38°13' E 149°06'715.4
2018-Feb-06 03:30S 38°19' E 149°00'10216.4
2018-Feb-05 21:16S 39°05' E 147°04'517.2
2018-Feb-05 20:59S 39°07' E 146°58'1317.3
2018-Feb-05 20:16S 39°13' E 146°44'617.4
2018-Feb-05 19:55S 39°16' E 146°37'1116.9
2018-Feb-05 19:16S 39°16' E 146°23'2216.7
2018-Feb-05 17:58S 39°07' E 145°57'7017.1
2018-Feb-05 13:52S 38°27' E 144°44'23 8.8
2018-Feb-05 11:16S 38°06' E 144°55'515.3
2018-Feb-05 10:57S 38°01' E 144°55'714.5
2018-Feb-05 10:30S 37°54' E 144°56'6 0.8
2018-Feb-05 02:00S 37°48' E 144°54'3 0.6 180 / 101019.810.8 21.019.422.0
2018-Feb-04 20:45S 37°51' E 144°56'  

Dump ship's entire track history